sensor_id;sensor_type;location;lat;lon;timestamp;P1;durP1;ratioP1;P2;durP2;ratioP2
24008;SDS011;12217;50.792;4.372;2023-04-15T00:01:26;4.43;;;3.30;;
24008;SDS011;12217;50.792;4.372;2023-04-15T00:03:52;5.65;;;3.83;;
24008;SDS011;12217;50.792;4.372;2023-04-15T00:06:19;5.03;;;3.20;;
24008;SDS011;12217;50.792;4.372;2023-04-15T00:08:48;5.30;;;3.97;;
24008;SDS011;12217;50.792;4.372;2023-04-15T00:11:14;4.68;;;3.10;;
24008;SDS011;12217;50.792;4.372;2023-04-15T00:13:41;5.55;;;3.40;;
24008;SDS011;12217;50.792;4.372;2023-04-15T00:16:07;4.80;;;3.20;;
24008;SDS011;12217;50.792;4.372;2023-04-15T00:18:33;5.18;;;3.42;;
24008;SDS011;12217;50.792;4.372;2023-04-15T00:20:59;6.50;;;3.63;;
24008;SDS011;12217;50.792;4.372;2023-04-15T00:23:25;4.97;;;3.60;;
24008;SDS011;12217;50.792;4.372;2023-04-15T00:25:51;4.65;;;3.67;;
24008;SDS011;12217;50.792;4.372;2023-04-15T00:28:17;4.85;;;3.35;;
24008;SDS011;12217;50.792;4.372;2023-04-15T00:30:43;5.30;;;3.72;;
24008;SDS011;12217;50.792;4.372;2023-04-15T00:33:09;3.83;;;3.42;;
24008;SDS011;12217;50.792;4.372;2023-04-15T00:35:34;5.68;;;3.80;;
24008;SDS011;12217;50.792;4.372;2023-04-15T00:38:01;4.07;;;3.33;;
24008;SDS011;12217;50.792;4.372;2023-04-15T00:40:27;4.78;;;3.33;;
24008;SDS011;12217;50.792;4.372;2023-04-15T00:42:53;6.25;;;3.47;;
24008;SDS011;12217;50.792;4.372;2023-04-15T00:45:19;4.35;;;3.25;;
24008;SDS011;12217;50.792;4.372;2023-04-15T00:47:44;4.65;;;3.45;;
24008;SDS011;12217;50.792;4.372;2023-04-15T00:50:11;5.45;;;3.75;;
24008;SDS011;12217;50.792;4.372;2023-04-15T00:52:37;4.75;;;3.83;;
24008;SDS011;12217;50.792;4.372;2023-04-15T00:55:04;6.40;;;4.35;;
24008;SDS011;12217;50.792;4.372;2023-04-15T00:57:30;5.70;;;4.22;;
24008;SDS011;12217;50.792;4.372;2023-04-15T00:59:57;6.63;;;3.92;;
24008;SDS011;12217;50.792;4.372;2023-04-15T01:02:23;5.68;;;4.03;;
24008;SDS011;12217;50.792;4.372;2023-04-15T01:04:48;5.65;;;4.40;;
24008;SDS011;12217;50.792;4.372;2023-04-15T01:07:14;7.63;;;4.55;;
24008;SDS011;12217;50.792;4.372;2023-04-15T01:09:40;5.90;;;4.35;;
24008;SDS011;12217;50.792;4.372;2023-04-15T01:12:06;5.88;;;4.60;;
24008;SDS011;12217;50.792;4.372;2023-04-15T01:14:34;5.25;;;4.25;;
24008;SDS011;12217;50.792;4.372;2023-04-15T01:17:00;6.97;;;4.40;;
24008;SDS011;12217;50.792;4.372;2023-04-15T01:19:26;5.35;;;4.85;;
24008;SDS011;12217;50.792;4.372;2023-04-15T01:21:52;5.97;;;4.93;;
24008;SDS011;12217;50.792;4.372;2023-04-15T01:24:18;6.18;;;4.68;;
24008;SDS011;12217;50.792;4.372;2023-04-15T01:26:44;5.97;;;4.70;;
24008;SDS011;12217;50.792;4.372;2023-04-15T01:29:10;7.18;;;4.65;;
24008;SDS011;12217;50.792;4.372;2023-04-15T01:31:37;6.82;;;4.93;;
24008;SDS011;12217;50.792;4.372;2023-04-15T01:34:02;5.38;;;4.45;;
24008;SDS011;12217;50.792;4.372;2023-04-15T01:36:28;5.80;;;4.40;;
24008;SDS011;12217;50.792;4.372;2023-04-15T01:38:54;6.05;;;5.10;;
24008;SDS011;12217;50.792;4.372;2023-04-15T01:41:24;8.43;;;5.28;;
24008;SDS011;12217;50.792;4.372;2023-04-15T01:43:50;5.65;;;4.95;;
24008;SDS011;12217;50.792;4.372;2023-04-15T01:46:16;6.35;;;5.22;;
24008;SDS011;12217;50.792;4.372;2023-04-15T01:48:42;7.05;;;5.35;;
24008;SDS011;12217;50.792;4.372;2023-04-15T01:51:07;6.38;;;5.35;;
24008;SDS011;12217;50.792;4.372;2023-04-15T01:53:33;7.05;;;4.47;;
24008;SDS011;12217;50.792;4.372;2023-04-15T01:55:58;6.25;;;5.65;;
24008;SDS011;12217;50.792;4.372;2023-04-15T01:58:24;5.72;;;4.95;;
24008;SDS011;12217;50.792;4.372;2023-04-15T02:00:50;7.20;;;4.93;;
24008;SDS011;12217;50.792;4.372;2023-04-15T02:03:15;5.55;;;5.00;;
24008;SDS011;12217;50.792;4.372;2023-04-15T02:05:41;7.43;;;4.88;;
24008;SDS011;12217;50.792;4.372;2023-04-15T02:08:07;7.07;;;5.45;;
24008;SDS011;12217;50.792;4.372;2023-04-15T02:10:33;8.07;;;5.28;;
24008;SDS011;12217;50.792;4.372;2023-04-15T02:12:59;8.52;;;6.32;;
24008;SDS011;12217;50.792;4.372;2023-04-15T02:15:25;7.60;;;5.00;;
24008;SDS011;12217;50.792;4.372;2023-04-15T02:17:50;6.22;;;5.60;;
24008;SDS011;12217;50.792;4.372;2023-04-15T02:20:19;7.65;;;5.07;;
24008;SDS011;12217;50.792;4.372;2023-04-15T02:22:45;6.63;;;5.55;;
24008;SDS011;12217;50.792;4.372;2023-04-15T02:25:12;6.10;;;5.20;;
24008;SDS011;12217;50.792;4.372;2023-04-15T02:27:38;9.07;;;5.70;;
24008;SDS011;12217;50.792;4.372;2023-04-15T02:30:03;7.32;;;5.60;;
24008;SDS011;12217;50.792;4.372;2023-04-15T02:32:31;7.43;;;5.93;;
24008;SDS011;12217;50.792;4.372;2023-04-15T02:35:00;6.90;;;5.43;;
24008;SDS011;12217;50.792;4.372;2023-04-15T02:37:27;5.88;;;5.28;;
24008;SDS011;12217;50.792;4.372;2023-04-15T02:39:54;7.38;;;5.93;;
24008;SDS011;12217;50.792;4.372;2023-04-15T02:42:20;6.35;;;5.75;;
24008;SDS011;12217;50.792;4.372;2023-04-15T02:44:45;7.25;;;5.55;;
24008;SDS011;12217;50.792;4.372;2023-04-15T02:47:11;7.65;;;6.03;;
24008;SDS011;12217;50.792;4.372;2023-04-15T02:49:38;6.38;;;5.70;;
24008;SDS011;12217;50.792;4.372;2023-04-15T02:52:04;5.97;;;5.38;;
24008;SDS011;12217;50.792;4.372;2023-04-15T02:54:30;6.88;;;5.47;;
24008;SDS011;12217;50.792;4.372;2023-04-15T02:56:57;6.15;;;5.47;;
24008;SDS011;12217;50.792;4.372;2023-04-15T02:59:23;6.93;;;5.63;;
24008;SDS011;12217;50.792;4.372;2023-04-15T03:01:49;5.75;;;5.20;;
24008;SDS011;12217;50.792;4.372;2023-04-15T03:04:14;7.43;;;5.53;;
24008;SDS011;12217;50.792;4.372;2023-04-15T03:06:40;5.78;;;5.10;;
24008;SDS011;12217;50.792;4.372;2023-04-15T03:09:06;6.47;;;5.40;;
24008;SDS011;12217;50.792;4.372;2023-04-15T03:11:32;6.65;;;5.53;;
24008;SDS011;12217;50.792;4.372;2023-04-15T03:13:58;5.60;;;5.10;;
24008;SDS011;12217;50.792;4.372;2023-04-15T03:16:23;6.38;;;4.93;;
24008;SDS011;12217;50.792;4.372;2023-04-15T03:18:49;6.10;;;5.50;;
24008;SDS011;12217;50.792;4.372;2023-04-15T03:21:15;7.18;;;5.32;;
24008;SDS011;12217;50.792;4.372;2023-04-15T03:23:41;6.13;;;5.53;;
24008;SDS011;12217;50.792;4.372;2023-04-15T03:26:06;6.15;;;5.55;;
24008;SDS011;12217;50.792;4.372;2023-04-15T03:28:32;7.57;;;5.25;;
24008;SDS011;12217;50.792;4.372;2023-04-15T03:30:58;5.95;;;5.05;;
24008;SDS011;12217;50.792;4.372;2023-04-15T03:33:23;6.32;;;5.68;;
24008;SDS011;12217;50.792;4.372;2023-04-15T03:35:49;8.02;;;5.95;;
24008;SDS011;12217;50.792;4.372;2023-04-15T03:38:16;10.63;;;6.68;;
24008;SDS011;12217;50.792;4.372;2023-04-15T03:40:42;13.80;;;7.47;;
24008;SDS011;12217;50.792;4.372;2023-04-15T03:43:08;10.00;;;6.63;;
24008;SDS011;12217;50.792;4.372;2023-04-15T03:45:33;18.17;;;9.25;;
24008;SDS011;12217;50.792;4.372;2023-04-15T03:47:59;14.95;;;9.57;;
24008;SDS011;12217;50.792;4.372;2023-04-15T03:50:25;22.73;;;11.52;;
24008;SDS011;12217;50.792;4.372;2023-04-15T03:52:51;27.42;;;13.48;;
24008;SDS011;12217;50.792;4.372;2023-04-15T03:55:17;22.95;;;13.15;;
24008;SDS011;12217;50.792;4.372;2023-04-15T03:57:43;28.52;;;13.98;;
24008;SDS011;12217;50.792;4.372;2023-04-15T04:00:09;30.65;;;15.02;;
24008;SDS011;12217;50.792;4.372;2023-04-15T04:02:35;25.98;;;14.95;;
24008;SDS011;12217;50.792;4.372;2023-04-15T04:05:00;27.42;;;15.00;;
24008;SDS011;12217;50.792;4.372;2023-04-15T04:07:26;27.50;;;14.63;;
24008;SDS011;12217;50.792;4.372;2023-04-15T04:09:52;29.45;;;15.70;;
24008;SDS011;12217;50.792;4.372;2023-04-15T04:12:17;27.80;;;15.20;;
24008;SDS011;12217;50.792;4.372;2023-04-15T04:14:43;22.00;;;14.02;;
24008;SDS011;12217;50.792;4.372;2023-04-15T04:17:08;19.73;;;13.07;;
24008;SDS011;12217;50.792;4.372;2023-04-15T04:19:34;19.25;;;12.60;;
24008;SDS011;12217;50.792;4.372;2023-04-15T04:22:00;20.95;;;13.20;;
24008;SDS011;12217;50.792;4.372;2023-04-15T04:24:26;20.05;;;12.35;;
24008;SDS011;12217;50.792;4.372;2023-04-15T04:26:51;20.08;;;11.77;;
24008;SDS011;12217;50.792;4.372;2023-04-15T04:29:17;18.23;;;12.07;;
24008;SDS011;12217;50.792;4.372;2023-04-15T04:31:42;14.70;;;11.48;;
24008;SDS011;12217;50.792;4.372;2023-04-15T04:34:08;20.27;;;11.75;;
24008;SDS011;12217;50.792;4.372;2023-04-15T04:36:34;19.60;;;11.80;;
24008;SDS011;12217;50.792;4.372;2023-04-15T04:38:59;17.55;;;11.43;;
24008;SDS011;12217;50.792;4.372;2023-04-15T04:41:25;15.38;;;11.38;;
24008;SDS011;12217;50.792;4.372;2023-04-15T04:43:51;15.35;;;11.55;;
24008;SDS011;12217;50.792;4.372;2023-04-15T04:46:16;16.48;;;11.57;;
24008;SDS011;12217;50.792;4.372;2023-04-15T04:48:42;19.65;;;12.00;;
24008;SDS011;12217;50.792;4.372;2023-04-15T04:51:08;15.57;;;11.30;;
24008;SDS011;12217;50.792;4.372;2023-04-15T04:53:34;17.35;;;11.05;;
24008;SDS011;12217;50.792;4.372;2023-04-15T04:56:01;16.80;;;11.75;;
24008;SDS011;12217;50.792;4.372;2023-04-15T04:58:27;15.50;;;11.45;;
24008;SDS011;12217;50.792;4.372;2023-04-15T05:00:52;16.00;;;11.15;;
24008;SDS011;12217;50.792;4.372;2023-04-15T05:03:18;15.48;;;10.85;;
24008;SDS011;12217;50.792;4.372;2023-04-15T05:05:44;14.52;;;10.82;;
24008;SDS011;12217;50.792;4.372;2023-04-15T05:08:09;18.75;;;10.13;;
24008;SDS011;12217;50.792;4.372;2023-04-15T05:10:35;15.93;;;10.73;;
24008;SDS011;12217;50.792;4.372;2023-04-15T05:13:00;13.32;;;9.40;;
24008;SDS011;12217;50.792;4.372;2023-04-15T05:15:26;13.70;;;9.75;;
24008;SDS011;12217;50.792;4.372;2023-04-15T05:17:52;14.43;;;9.65;;
24008;SDS011;12217;50.792;4.372;2023-04-15T05:20:17;15.50;;;9.93;;
24008;SDS011;12217;50.792;4.372;2023-04-15T05:22:43;14.07;;;9.45;;
24008;SDS011;12217;50.792;4.372;2023-04-15T05:25:09;15.60;;;11.13;;
24008;SDS011;12217;50.792;4.372;2023-04-15T05:27:34;14.85;;;10.68;;
24008;SDS011;12217;50.792;4.372;2023-04-15T05:30:00;16.63;;;10.95;;
24008;SDS011;12217;50.792;4.372;2023-04-15T05:32:26;14.18;;;11.07;;
24008;SDS011;12217;50.792;4.372;2023-04-15T05:34:51;14.68;;;10.80;;
24008;SDS011;12217;50.792;4.372;2023-04-15T05:37:17;13.55;;;10.35;;
24008;SDS011;12217;50.792;4.372;2023-04-15T05:39:45;16.95;;;11.23;;
24008;SDS011;12217;50.792;4.372;2023-04-15T05:42:10;12.88;;;10.02;;
24008;SDS011;12217;50.792;4.372;2023-04-15T05:44:36;17.92;;;10.32;;
24008;SDS011;12217;50.792;4.372;2023-04-15T05:47:01;14.50;;;9.80;;
24008;SDS011;12217;50.792;4.372;2023-04-15T05:49:27;12.40;;;9.07;;
24008;SDS011;12217;50.792;4.372;2023-04-15T05:51:53;14.77;;;9.43;;
24008;SDS011;12217;50.792;4.372;2023-04-15T05:54:19;12.07;;;9.25;;
24008;SDS011;12217;50.792;4.372;2023-04-15T05:56:47;14.05;;;9.15;;
24008;SDS011;12217;50.792;4.372;2023-04-15T05:59:12;12.98;;;8.88;;
24008;SDS011;12217;50.792;4.372;2023-04-15T06:01:38;15.57;;;9.43;;
24008;SDS011;12217;50.792;4.372;2023-04-15T06:04:04;12.77;;;8.40;;
24008;SDS011;12217;50.792;4.372;2023-04-15T06:06:29;16.63;;;8.88;;
24008;SDS011;12217;50.792;4.372;2023-04-15T06:08:56;16.40;;;10.10;;
24008;SDS011;12217;50.792;4.372;2023-04-15T06:11:22;13.02;;;8.85;;
24008;SDS011;12217;50.792;4.372;2023-04-15T06:13:48;15.48;;;8.85;;
24008;SDS011;12217;50.792;4.372;2023-04-15T06:16:13;14.60;;;9.30;;
24008;SDS011;12217;50.792;4.372;2023-04-15T06:18:39;12.85;;;9.10;;
24008;SDS011;12217;50.792;4.372;2023-04-15T06:21:05;11.95;;;8.95;;
24008;SDS011;12217;50.792;4.372;2023-04-15T06:23:32;11.38;;;9.57;;
24008;SDS011;12217;50.792;4.372;2023-04-15T06:25:59;11.27;;;9.05;;
24008;SDS011;12217;50.792;4.372;2023-04-15T06:28:25;11.48;;;8.52;;
24008;SDS011;12217;50.792;4.372;2023-04-15T06:30:51;12.40;;;9.00;;
24008;SDS011;12217;50.792;4.372;2023-04-15T06:33:17;10.35;;;8.52;;
24008;SDS011;12217;50.792;4.372;2023-04-15T06:35:43;15.07;;;8.85;;
24008;SDS011;12217;50.792;4.372;2023-04-15T06:38:08;9.93;;;8.68;;
24008;SDS011;12217;50.792;4.372;2023-04-15T06:40:34;13.40;;;8.50;;
24008;SDS011;12217;50.792;4.372;2023-04-15T06:43:00;17.27;;;9.85;;
24008;SDS011;12217;50.792;4.372;2023-04-15T06:45:25;11.10;;;8.80;;
24008;SDS011;12217;50.792;4.372;2023-04-15T06:47:51;12.35;;;9.15;;
24008;SDS011;12217;50.792;4.372;2023-04-15T06:50:17;10.93;;;9.32;;
24008;SDS011;12217;50.792;4.372;2023-04-15T06:52:42;12.00;;;9.18;;
24008;SDS011;12217;50.792;4.372;2023-04-15T06:55:08;13.23;;;8.70;;
24008;SDS011;12217;50.792;4.372;2023-04-15T06:57:34;14.95;;;8.88;;
24008;SDS011;12217;50.792;4.372;2023-04-15T06:59:59;11.80;;;9.15;;
24008;SDS011;12217;50.792;4.372;2023-04-15T07:02:25;15.27;;;9.25;;
24008;SDS011;12217;50.792;4.372;2023-04-15T07:04:51;14.93;;;9.88;;
24008;SDS011;12217;50.792;4.372;2023-04-15T07:07:16;11.40;;;8.80;;
24008;SDS011;12217;50.792;4.372;2023-04-15T07:09:42;11.15;;;8.10;;
24008;SDS011;12217;50.792;4.372;2023-04-15T07:12:08;14.20;;;8.70;;
24008;SDS011;12217;50.792;4.372;2023-04-15T07:14:34;15.65;;;8.75;;
24008;SDS011;12217;50.792;4.372;2023-04-15T07:17:00;11.57;;;8.05;;
24008;SDS011;12217;50.792;4.372;2023-04-15T07:19:26;12.48;;;7.60;;
24008;SDS011;12217;50.792;4.372;2023-04-15T07:21:51;10.43;;;7.22;;
24008;SDS011;12217;50.792;4.372;2023-04-15T07:24:17;10.52;;;7.50;;
24008;SDS011;12217;50.792;4.372;2023-04-15T07:26:44;9.70;;;7.07;;
24008;SDS011;12217;50.792;4.372;2023-04-15T07:29:09;8.32;;;6.60;;
24008;SDS011;12217;50.792;4.372;2023-04-15T07:31:35;15.85;;;6.85;;
24008;SDS011;12217;50.792;4.372;2023-04-15T07:34:01;9.85;;;7.28;;
24008;SDS011;12217;50.792;4.372;2023-04-15T07:36:27;11.48;;;7.32;;
24008;SDS011;12217;50.792;4.372;2023-04-15T07:38:53;13.48;;;6.72;;
24008;SDS011;12217;50.792;4.372;2023-04-15T07:41:19;11.07;;;6.85;;
24008;SDS011;12217;50.792;4.372;2023-04-15T07:43:45;10.50;;;7.47;;
24008;SDS011;12217;50.792;4.372;2023-04-15T07:46:12;13.38;;;7.30;;
24008;SDS011;12217;50.792;4.372;2023-04-15T07:48:38;12.93;;;7.07;;
24008;SDS011;12217;50.792;4.372;2023-04-15T07:51:03;12.93;;;7.15;;
24008;SDS011;12217;50.792;4.372;2023-04-15T07:53:29;12.68;;;7.95;;
24008;SDS011;12217;50.792;4.372;2023-04-15T07:55:55;11.65;;;7.85;;
24008;SDS011;12217;50.792;4.372;2023-04-15T07:58:21;17.38;;;8.52;;
24008;SDS011;12217;50.792;4.372;2023-04-15T08:00:47;10.38;;;8.77;;
24008;SDS011;12217;50.792;4.372;2023-04-15T08:03:13;11.35;;;8.98;;
24008;SDS011;12217;50.792;4.372;2023-04-15T08:05:39;12.70;;;9.52;;
24008;SDS011;12217;50.792;4.372;2023-04-15T08:08:05;15.80;;;9.80;;
24008;SDS011;12217;50.792;4.372;2023-04-15T08:10:31;15.57;;;10.68;;
24008;SDS011;12217;50.792;4.372;2023-04-15T08:12:56;13.88;;;10.55;;
24008;SDS011;12217;50.792;4.372;2023-04-15T08:15:22;17.35;;;11.00;;
24008;SDS011;12217;50.792;4.372;2023-04-15T08:17:48;14.52;;;10.98;;
24008;SDS011;12217;50.792;4.372;2023-04-15T08:20:13;14.98;;;10.02;;
24008;SDS011;12217;50.792;4.372;2023-04-15T08:22:39;15.55;;;11.07;;
24008;SDS011;12217;50.792;4.372;2023-04-15T08:25:05;14.95;;;10.00;;
24008;SDS011;12217;50.792;4.372;2023-04-15T08:27:31;15.80;;;9.60;;
24008;SDS011;12217;50.792;4.372;2023-04-15T08:29:57;12.27;;;9.82;;
24008;SDS011;12217;50.792;4.372;2023-04-15T08:32:23;14.18;;;10.57;;
24008;SDS011;12217;50.792;4.372;2023-04-15T08:34:50;12.77;;;10.75;;
24008;SDS011;12217;50.792;4.372;2023-04-15T08:37:16;16.13;;;11.05;;
24008;SDS011;12217;50.792;4.372;2023-04-15T08:39:41;14.85;;;10.05;;
24008;SDS011;12217;50.792;4.372;2023-04-15T08:42:15;13.13;;;10.50;;
24008;SDS011;12217;50.792;4.372;2023-04-15T08:44:42;14.23;;;10.82;;
24008;SDS011;12217;50.792;4.372;2023-04-15T08:47:08;12.95;;;10.55;;
24008;SDS011;12217;50.792;4.372;2023-04-15T08:49:38;14.38;;;11.30;;
24008;SDS011;12217;50.792;4.372;2023-04-15T08:52:05;14.02;;;11.50;;
24008;SDS011;12217;50.792;4.372;2023-04-15T08:54:31;16.63;;;12.00;;
24008;SDS011;12217;50.792;4.372;2023-04-15T08:56:58;13.93;;;11.75;;
24008;SDS011;12217;50.792;4.372;2023-04-15T08:59:24;13.82;;;11.20;;
24008;SDS011;12217;50.792;4.372;2023-04-15T09:01:50;15.02;;;11.98;;
24008;SDS011;12217;50.792;4.372;2023-04-15T09:04:16;17.13;;;12.10;;
24008;SDS011;12217;50.792;4.372;2023-04-15T09:06:42;15.07;;;12.30;;
24008;SDS011;12217;50.792;4.372;2023-04-15T09:09:07;16.33;;;11.48;;
24008;SDS011;12217;50.792;4.372;2023-04-15T09:11:33;14.57;;;11.95;;
24008;SDS011;12217;50.792;4.372;2023-04-15T09:14:00;14.63;;;12.07;;
24008;SDS011;12217;50.792;4.372;2023-04-15T09:16:25;18.00;;;13.20;;
24008;SDS011;12217;50.792;4.372;2023-04-15T09:18:52;18.50;;;12.57;;
24008;SDS011;12217;50.792;4.372;2023-04-15T09:21:18;16.48;;;12.20;;
24008;SDS011;12217;50.792;4.372;2023-04-15T09:23:57;14.90;;;10.88;;
24008;SDS011;12217;50.792;4.372;2023-04-15T09:26:33;16.17;;;12.23;;
24008;SDS011;12217;50.792;4.372;2023-04-15T09:29:04;17.35;;;12.27;;
24008;SDS011;12217;50.792;4.372;2023-04-15T09:31:31;15.70;;;11.82;;
24008;SDS011;12217;50.792;4.372;2023-04-15T09:33:57;15.57;;;12.18;;
24008;SDS011;12217;50.792;4.372;2023-04-15T09:36:23;16.75;;;11.45;;
24008;SDS011;12217;50.792;4.372;2023-04-15T09:38:57;15.00;;;10.80;;
24008;SDS011;12217;50.792;4.372;2023-04-15T09:41:24;13.63;;;9.30;;
24008;SDS011;12217;50.792;4.372;2023-04-15T09:43:51;14.52;;;8.65;;
24008;SDS011;12217;50.792;4.372;2023-04-15T09:46:17;9.65;;;7.47;;
24008;SDS011;12217;50.792;4.372;2023-04-15T09:48:43;10.50;;;7.00;;
24008;SDS011;12217;50.792;4.372;2023-04-15T09:51:08;9.50;;;6.97;;
24008;SDS011;12217;50.792;4.372;2023-04-15T09:53:34;15.23;;;6.97;;
24008;SDS011;12217;50.792;4.372;2023-04-15T09:56:02;9.43;;;6.47;;
24008;SDS011;12217;50.792;4.372;2023-04-15T09:58:31;10.82;;;8.07;;
24008;SDS011;12217;50.792;4.372;2023-04-15T10:00:59;10.85;;;7.82;;
24008;SDS011;12217;50.792;4.372;2023-04-15T10:03:28;11.55;;;7.95;;
24008;SDS011;12217;50.792;4.372;2023-04-15T10:05:55;11.07;;;7.57;;
24008;SDS011;12217;50.792;4.372;2023-04-15T10:08:22;8.50;;;7.03;;
24008;SDS011;12217;50.792;4.372;2023-04-15T10:10:50;9.20;;;7.47;;
24008;SDS011;12217;50.792;4.372;2023-04-15T10:13:17;22.67;;;7.78;;
24008;SDS011;12217;50.792;4.372;2023-04-15T10:16:09;11.68;;;7.22;;
24008;SDS011;12217;50.792;4.372;2023-04-15T10:18:39;9.65;;;7.20;;
24008;SDS011;12217;50.792;4.372;2023-04-15T10:21:07;9.85;;;7.47;;
24008;SDS011;12217;50.792;4.372;2023-04-15T10:23:33;7.95;;;6.68;;
24008;SDS011;12217;50.792;4.372;2023-04-15T10:26:00;7.63;;;5.63;;
24008;SDS011;12217;50.792;4.372;2023-04-15T10:28:28;8.38;;;6.38;;
24008;SDS011;12217;50.792;4.372;2023-04-15T10:30:53;7.30;;;5.80;;
24008;SDS011;12217;50.792;4.372;2023-04-15T10:33:20;7.45;;;5.85;;
24008;SDS011;12217;50.792;4.372;2023-04-15T10:35:48;8.40;;;5.32;;
24008;SDS011;12217;50.792;4.372;2023-04-15T10:43:48;6.95;;;6.13;;
24008;SDS011;12217;50.792;4.372;2023-04-15T10:46:39;5.38;;;4.72;;
24008;SDS011;12217;50.792;4.372;2023-04-15T10:49:10;7.20;;;4.72;;
24008;SDS011;12217;50.792;4.372;2023-04-15T10:51:38;8.32;;;5.35;;
24008;SDS011;12217;50.792;4.372;2023-04-15T10:54:16;5.57;;;5.07;;
24008;SDS011;12217;50.792;4.372;2023-04-15T10:59:27;7.03;;;5.00;;
24008;SDS011;12217;50.792;4.372;2023-04-15T11:01:59;5.13;;;4.30;;
24008;SDS011;12217;50.792;4.372;2023-04-15T11:12:38;4.70;;;4.20;;
24008;SDS011;12217;50.792;4.372;2023-04-15T11:17:49;6.72;;;3.20;;
24008;SDS011;12217;50.792;4.372;2023-04-15T11:20:16;5.00;;;3.17;;
24008;SDS011;12217;50.792;4.372;2023-04-15T11:23:00;4.18;;;2.83;;
24008;SDS011;12217;50.792;4.372;2023-04-15T11:25:29;7.05;;;3.15;;
24008;SDS011;12217;50.792;4.372;2023-04-15T11:27:57;4.82;;;2.22;;
24008;SDS011;12217;50.792;4.372;2023-04-15T11:30:27;1.83;;;1.73;;
24008;SDS011;12217;50.792;4.372;2023-04-15T11:33:00;5.68;;;3.20;;
24008;SDS011;12217;50.792;4.372;2023-04-15T11:35:27;4.88;;;3.80;;
24008;SDS011;12217;50.792;4.372;2023-04-15T11:37:53;4.10;;;3.17;;
24008;SDS011;12217;50.792;4.372;2023-04-15T11:40:27;5.47;;;3.67;;
24008;SDS011;12217;50.792;4.372;2023-04-15T11:45:35;4.30;;;3.70;;
24008;SDS011;12217;50.792;4.372;2023-04-15T11:48:08;5.60;;;4.70;;
24008;SDS011;12217;50.792;4.372;2023-04-15T11:50:35;6.38;;;4.25;;
24008;SDS011;12217;50.792;4.372;2023-04-15T11:53:05;4.13;;;3.50;;
24008;SDS011;12217;50.792;4.372;2023-04-15T11:55:45;4.13;;;3.20;;
24008;SDS011;12217;50.792;4.372;2023-04-15T11:58:13;5.78;;;3.63;;
24008;SDS011;12217;50.792;4.372;2023-04-15T12:00:45;4.53;;;4.00;;
24008;SDS011;12217;50.792;4.372;2023-04-15T12:03:17;4.93;;;3.10;;
24008;SDS011;12217;50.792;4.372;2023-04-15T12:06:30;3.83;;;2.10;;
24008;SDS011;12217;50.792;4.372;2023-04-15T12:09:19;5.05;;;2.50;;
24008;SDS011;12217;50.792;4.372;2023-04-15T12:13:53;3.88;;;3.03;;
24008;SDS011;12217;50.792;4.372;2023-04-15T12:16:21;4.80;;;3.10;;
24008;SDS011;12217;50.792;4.372;2023-04-15T12:18:51;4.50;;;3.22;;
24008;SDS011;12217;50.792;4.372;2023-04-15T12:23:55;4.18;;;3.20;;
24008;SDS011;12217;50.792;4.372;2023-04-15T12:26:25;6.88;;;3.58;;
24008;SDS011;12217;50.792;4.372;2023-04-15T12:29:02;4.47;;;4.05;;
24008;SDS011;12217;50.792;4.372;2023-04-15T12:31:31;6.20;;;3.55;;
24008;SDS011;12217;50.792;4.372;2023-04-15T12:33:58;5.28;;;3.50;;
24008;SDS011;12217;50.792;4.372;2023-04-15T12:36:24;5.28;;;3.60;;
24008;SDS011;12217;50.792;4.372;2023-04-15T12:38:51;5.63;;;3.72;;
24008;SDS011;12217;50.792;4.372;2023-04-15T12:41:16;5.18;;;4.05;;
24008;SDS011;12217;50.792;4.372;2023-04-15T12:43:45;6.25;;;3.95;;
24008;SDS011;12217;50.792;4.372;2023-04-15T12:46:11;6.78;;;3.47;;
24008;SDS011;12217;50.792;4.372;2023-04-15T12:48:37;6.60;;;2.95;;
24008;SDS011;12217;50.792;4.372;2023-04-15T12:51:04;7.03;;;3.38;;
24008;SDS011;12217;50.792;4.372;2023-04-15T12:53:30;2.90;;;2.65;;
24008;SDS011;12217;50.792;4.372;2023-04-15T12:55:55;2.45;;;2.25;;
24008;SDS011;12217;50.792;4.372;2023-04-15T12:58:21;3.00;;;2.50;;
24008;SDS011;12217;50.792;4.372;2023-04-15T13:00:47;3.80;;;2.45;;
24008;SDS011;12217;50.792;4.372;2023-04-15T13:03:13;3.25;;;2.55;;
24008;SDS011;12217;50.792;4.372;2023-04-15T13:05:39;2.83;;;2.17;;
24008;SDS011;12217;50.792;4.372;2023-04-15T13:08:05;3.17;;;2.22;;
24008;SDS011;12217;50.792;4.372;2023-04-15T13:10:31;4.43;;;2.72;;
24008;SDS011;12217;50.792;4.372;2023-04-15T13:12:57;5.13;;;2.85;;
24008;SDS011;12217;50.792;4.372;2023-04-15T13:15:22;2.63;;;2.42;;
24008;SDS011;12217;50.792;4.372;2023-04-15T13:17:49;3.50;;;2.80;;
24008;SDS011;12217;50.792;4.372;2023-04-15T13:20:15;5.45;;;2.65;;
24008;SDS011;12217;50.792;4.372;2023-04-15T13:22:41;5.95;;;2.70;;
24008;SDS011;12217;50.792;4.372;2023-04-15T13:25:07;3.38;;;3.00;;
24008;SDS011;12217;50.792;4.372;2023-04-15T13:27:33;2.97;;;2.67;;
24008;SDS011;12217;50.792;4.372;2023-04-15T13:29:58;4.13;;;2.83;;
24008;SDS011;12217;50.792;4.372;2023-04-15T13:32:24;3.25;;;2.60;;
24008;SDS011;12217;50.792;4.372;2023-04-15T13:34:50;4.05;;;3.67;;
24008;SDS011;12217;50.792;4.372;2023-04-15T13:37:16;4.50;;;3.28;;
24008;SDS011;12217;50.792;4.372;2023-04-15T13:39:41;4.72;;;3.10;;
24008;SDS011;12217;50.792;4.372;2023-04-15T13:42:07;4.05;;;3.00;;
24008;SDS011;12217;50.792;4.372;2023-04-15T13:44:33;5.90;;;3.03;;
24008;SDS011;12217;50.792;4.372;2023-04-15T13:46:59;3.78;;;3.08;;
24008;SDS011;12217;50.792;4.372;2023-04-15T13:49:24;5.05;;;3.28;;
24008;SDS011;12217;50.792;4.372;2023-04-15T13:51:50;4.80;;;3.25;;
24008;SDS011;12217;50.792;4.372;2023-04-15T13:54:16;4.80;;;2.50;;
24008;SDS011;12217;50.792;4.372;2023-04-15T13:56:41;4.40;;;2.35;;
24008;SDS011;12217;50.792;4.372;2023-04-15T13:59:07;3.03;;;2.50;;
24008;SDS011;12217;50.792;4.372;2023-04-15T14:01:33;3.92;;;2.70;;
24008;SDS011;12217;50.792;4.372;2023-04-15T14:04:00;3.13;;;2.30;;
24008;SDS011;12217;50.792;4.372;2023-04-15T14:06:27;3.67;;;2.47;;
24008;SDS011;12217;50.792;4.372;2023-04-15T14:08:55;4.15;;;2.38;;
24008;SDS011;12217;50.792;4.372;2023-04-15T14:11:21;3.47;;;2.47;;
24008;SDS011;12217;50.792;4.372;2023-04-15T14:13:46;4.30;;;2.38;;
24008;SDS011;12217;50.792;4.372;2023-04-15T14:16:12;3.40;;;2.30;;
24008;SDS011;12217;50.792;4.372;2023-04-15T14:18:38;2.65;;;2.10;;
24008;SDS011;12217;50.792;4.372;2023-04-15T14:21:04;4.90;;;2.17;;
24008;SDS011;12217;50.792;4.372;2023-04-15T14:23:31;3.70;;;2.15;;
24008;SDS011;12217;50.792;4.372;2023-04-15T14:25:56;4.30;;;2.50;;
24008;SDS011;12217;50.792;4.372;2023-04-15T14:28:23;7.80;;;2.60;;
24008;SDS011;12217;50.792;4.372;2023-04-15T14:30:48;5.20;;;3.50;;
24008;SDS011;12217;50.792;4.372;2023-04-15T14:33:14;6.47;;;3.13;;
24008;SDS011;12217;50.792;4.372;2023-04-15T14:35:40;7.07;;;2.72;;
24008;SDS011;12217;50.792;4.372;2023-04-15T14:38:05;4.25;;;3.10;;
24008;SDS011;12217;50.792;4.372;2023-04-15T14:40:34;3.67;;;2.38;;
24008;SDS011;12217;50.792;4.372;2023-04-15T14:43:00;2.67;;;2.00;;
24008;SDS011;12217;50.792;4.372;2023-04-15T14:45:25;3.38;;;1.67;;
24008;SDS011;12217;50.792;4.372;2023-04-15T14:47:52;3.78;;;1.73;;
24008;SDS011;12217;50.792;4.372;2023-04-15T14:50:18;3.38;;;1.65;;
24008;SDS011;12217;50.792;4.372;2023-04-15T14:52:43;2.75;;;1.70;;
24008;SDS011;12217;50.792;4.372;2023-04-15T14:55:09;2.38;;;1.40;;
24008;SDS011;12217;50.792;4.372;2023-04-15T14:57:36;2.80;;;1.58;;
24008;SDS011;12217;50.792;4.372;2023-04-15T15:00:03;4.30;;;1.83;;
24008;SDS011;12217;50.792;4.372;2023-04-15T15:02:32;6.80;;;5.10;;